Time;durP1;ratioP1;P1;durP2;ratioP2;P2;SDS_P1;SDS_P2;PMS_P1;PMS_P2;Temp;Humidity;BMP_temperature;BMP_pressure;BME280_temperature;BME280_humidity;BME280_pressure;Samples;Min_cycle;Max_cycle;Signal;HPM_P1;HPM_P2
2021/06/24 00:07:56;;;;;;;6.53;5.63;;;20.10;99.90;;;;;;20883548;28;20229;-69
2021/06/24 00:18:00;;;;;;;6.43;4.60;;;19.90;99.90;;;;;;20914796;28;20197;-70
2021/06/24 00:28:05;;;;;;;11.60;5.27;;;19.50;99.90;;;;;;20913407;28;20217;-69
2021/06/24 00:38:10;;;;;;;7.90;5.83;;;19.60;99.90;;;;;;20914795;28;20738;-69
2021/06/24 00:48:15;;;;;;;5.83;4.40;;;19.50;99.90;;;;;;20913222;28;20659;-70
2021/06/24 00:58:21;;;;;;;6.03;5.13;;;19.60;99.90;;;;;;20912590;28;20198;-69
2021/06/24 01:08:29;;;;;;;8.77;5.00;;;19.40;99.90;;;;;;20912948;28;20738;-69
2021/06/24 01:18:34;;;;;;;6.00;4.83;;;19.20;99.90;;;;;;20911290;28;20288;-68
2021/06/24 01:28:40;;;;;;;5.67;4.50;;;18.90;99.90;;;;;;20831489;28;20270;-68
2021/06/24 01:38:44;;;;;;;5.60;3.27;;;18.60;99.90;;;;;;20826650;28;20715;-67
2021/06/24 01:48:50;;;;;;;7.60;3.57;;;18.50;99.90;;;;;;20825550;28;20335;-67
2021/06/24 02:09:30;;;;;;;8.57;3.10;;;18.70;99.90;;;;;;20641318;28;20228;-71
2021/06/24 02:19:34;;;;;;;2.07;1.57;;;18.10;99.90;;;;;;20660365;28;20222;-70
2021/06/24 02:29:39;;;;;;;1.60;0.77;;;18.20;99.90;;;;;;20641227;28;20313;-69
2021/06/24 02:39:43;;;;;;;1.97;1.77;;;18.20;99.90;;;;;;20655458;28;20228;-70
2021/06/24 02:49:48;;;;;;;1.67;1.57;;;18.10;99.90;;;;;;20655775;28;20223;-71
2021/06/24 02:59:52;;;;;;;5.53;1.73;;;18.20;99.90;;;;;;20667968;23;20310;-63
2021/06/24 03:09:57;;;;;;;4.93;2.87;;;18.30;99.90;;;;;;20656630;28;20234;-64
2021/06/24 03:20:00;;;;;;;1.77;1.67;;;18.60;99.90;;;;;;20646047;28;20183;-64
2021/06/24 03:30:10;;;;;;;5.70;3.67;;;18.50;99.90;;;;;;20735474;28;20292;-64
2021/06/24 03:40:17;;;;;;;5.93;4.63;;;18.40;99.90;;;;;;20734557;28;20687;-64
2021/06/24 03:50:22;;;;;;;7.37;3.47;;;18.60;99.90;;;;;;20735347;28;20222;-64
2021/06/24 04:00:27;;;;;;;12.43;4.80;;;18.80;99.90;;;;;;20730612;28;20280;-65
2021/06/24 04:10:37;;;;;;;4.13;3.73;;;18.30;99.90;;;;;;20815253;28;20305;-64
2021/06/24 04:20:40;;;;;;;4.03;2.57;;;18.20;99.90;;;;;;20784397;28;20190;-64
2021/06/24 04:30:45;;;;;;;1.57;1.10;;;18.30;99.90;;;;;;20733333;28;20231;-64
2021/06/24 04:40:49;;;;;;;1.30;1.20;;;18.30;99.90;;;;;;20733582;28;20558;-64
2021/06/24 04:50:54;;;;;;;1.00;0.77;;;18.10;99.90;;;;;;20733078;28;20703;-65
2021/06/24 05:00:58;;;;;;;3.83;1.70;;;17.90;99.90;;;;;;20741626;28;20241;-64
2021/06/24 05:11:04;;;;;;;2.00;1.83;;;17.90;99.90;;;;;;20747167;28;20281;-63
2021/06/24 05:21:08;;;;;;;1.50;0.83;;;17.90;99.90;;;;;;20744803;28;20599;-63
2021/06/24 05:31:13;;;;;;;1.77;1.67;;;18.10;99.90;;;;;;20826474;28;20707;-62
2021/06/24 05:41:17;;;;;;;1.57;1.13;;;18.20;99.90;;;;;;20826565;28;20281;-63
2021/06/24 05:51:23;;;;;;;2.03;1.93;;;18.30;99.90;;;;;;20825457;28;20268;-64
2021/06/24 06:01:27;;;;;;;7.03;2.00;;;18.60;99.90;;;;;;20825281;28;20228;-64
2021/06/24 06:11:32;;;;;;;0.77;0.77;;;18.90;99.90;;;;;;20806631;28;20257;-64
2021/06/24 06:21:36;;;;;;;1.10;0.53;;;19.20;99.90;;;;;;20802148;28;20198;-65
2021/06/24 06:31:42;;;;;;;21.13;0.90;;;19.50;99.90;;;;;;20741491;28;20242;-65
2021/06/24 06:41:45;;;;;;;2.20;1.17;;;19.90;99.90;;;;;;20740634;28;20331;-65
2021/06/24 06:51:50;;;;;;;2.03;1.23;;;20.40;99.90;;;;;;20739348;28;20310;-64
2021/06/24 07:01:54;;;;;;;1.37;1.07;;;20.50;99.90;;;;;;20738828;28;20599;-64
2021/06/24 07:11:59;;;;;;;2.83;1.77;;;20.60;99.90;;;;;;20719717;28;20695;-64
2021/06/24 07:22:03;;;;;;;16.33;1.03;;;20.80;99.90;;;;;;20759898;28;20656;-66
2021/06/24 07:32:08;;;;;;;3.23;1.67;;;21.10;99.90;;;;;;20766161;28;20237;-66
2021/06/24 07:42:12;;;;;;;2.50;0.87;;;21.20;99.90;;;;;;20734112;28;20195;-64
2021/06/24 07:52:17;;;;;;;1.00;0.90;;;21.70;99.90;;;;;;20737667;28;20232;-64
2021/06/24 08:02:20;;;;;;;2.30;1.17;;;22.00;99.90;;;;;;20733251;28;20313;-66
2021/06/24 08:12:25;;;;;;;2.33;1.67;;;22.50;99.90;;;;;;20715763;28;20677;-66
2021/06/24 08:22:29;;;;;;;2.10;1.23;;;22.50;99.90;;;;;;20733370;28;20221;-65
2021/06/24 08:32:37;;;;;;;2.63;1.10;;;22.50;99.90;;;;;;20739399;28;20226;-66
2021/06/24 08:42:41;;;;;;;1.37;1.00;;;22.30;99.90;;;;;;20731436;28;20668;-67
2021/06/24 08:52:49;;;;;;;2.60;1.87;;;22.30;99.90;;;;;;20747794;28;20230;-66
2021/06/24 09:02:54;;;;;;;2.30;1.83;;;22.10;99.90;;;;;;20746678;28;20215;-66
2021/06/24 09:13:03;;;;;;;1.23;1.00;;;22.60;99.90;;;;;;20729263;28;20234;-67
2021/06/24 09:23:10;;;;;;;1.50;1.37;;;22.80;99.90;;;;;;20747430;28;20209;-65
2021/06/24 09:33:17;;;;;;;1.80;1.20;;;22.40;99.90;;;;;;20744573;28;20223;-65
2021/06/24 09:43:35;;;;;;;2.37;1.43;;;22.60;99.90;;;;;;20742390;28;20601;-65
2021/06/24 09:53:52;;;;;;;2.60;1.20;;;22.90;99.90;;;;;;20741722;28;20237;-65
2021/06/24 10:03:58;;;;;;;0.90;0.70;;;23.40;99.90;;;;;;20725080;28;20226;-65
2021/06/24 10:14:03;;;;;;;1.10;1.00;;;23.30;99.90;;;;;;20741942;28;20219;-63
2021/06/24 10:24:12;;;;;;;2.20;0.80;;;24.10;99.90;;;;;;20781098;28;20206;-63
2021/06/24 10:34:17;;;;;;;2.92;1.38;;;24.60;99.90;;;;;;20805390;28;20308;-64
2021/06/24 10:44:50;;;;;;;1.02;0.77;;;24.80;99.90;;;;;;20821549;28;20242;-64
2021/06/24 10:54:56;;;;;;;8.27;2.67;;;25.20;99.90;;;;;;20820476;28;20222;-62
2021/06/24 11:05:17;;;;;;;5.43;2.77;;;24.50;99.90;;;;;;20800025;28;20233;-63
2021/06/24 11:15:45;;;;;;;2.42;2.22;;;25.10;99.90;;;;;;20818672;28;20595;-63
2021/06/24 11:26:04;;;;;;;4.50;2.30;;;25.60;99.90;;;;;;20762582;28;20206;-65
2021/06/24 11:36:12;;;;;;;0.47;0.40;;;26.20;99.90;;;;;;20717509;28;20253;-63
2021/06/24 11:46:24;;;;;;;1.48;0.90;;;27.80;99.90;;;;;;20738169;28;20548;-65
2021/06/24 12:06:53;;;;;;;0.28;0.28;;;27.70;99.90;;;;;;20737366;28;20226;-63
2021/06/24 12:17:14;;;;;;;0.50;0.50;;;29.00;99.90;;;;;;20752096;28;20205;-62
2021/06/24 12:27:24;;;;;;;2.25;1.08;;;28.20;99.90;;;;;;20750536;28;20675;-64
2021/06/24 12:37:37;;;;;;;2.10;0.95;;;29.60;99.90;;;;;;20750502;28;20194;-63
2021/06/24 12:47:43;;;;;;;0.75;0.73;;;29.40;99.90;;;;;;20748778;28;20230;-64
2021/06/24 12:57:54;;;;;;;1.30;0.80;;;29.70;99.90;;;;;;20749071;28;20191;-64
2021/06/24 13:08:00;;;;;;;1.15;0.90;;;30.10;99.90;;;;;;20731727;28;20329;-63
2021/06/24 13:18:05;;;;;;;3.63;0.40;;;31.00;99.90;;;;;;20747272;28;20203;-63
2021/06/24 13:28:10;;;;;;;1.10;1.00;;;30.60;99.90;;;;;;20821692;28;20230;-62
2021/06/24 13:38:15;;;;;;;1.83;0.57;;;31.00;99.90;;;;;;20829113;28;20201;-63
2021/06/24 13:48:20;;;;;;;1.05;0.65;;;30.70;99.90;;;;;;20827748;28;20738;-62
2021/06/24 13:58:25;;;;;;;1.25;1.15;;;31.50;99.90;;;;;;20826769;28;20218;-63
2021/06/24 14:08:29;;;;;;;1.20;1.10;;;30.80;99.90;;;;;;20826108;28;20308;-63
2021/06/24 14:18:34;;;;;;;1.27;1.17;;;30.90;99.90;;;;;;20825713;28;20264;-62
2021/06/24 14:28:38;;;;;;;3.85;2.28;;;31.40;99.90;;;;;;20745584;28;20223;-63
2021/06/24 14:38:44;;;;;;;2.60;2.15;;;32.40;99.90;;;;;;20723743;28;20205;-62
2021/06/24 14:48:48;;;;;;;3.30;1.90;;;32.30;99.90;;;;;;20741594;28;20250;-63
2021/06/24 14:58:53;;;;;;;5.10;2.92;;;32.60;99.90;;;;;;20738463;28;20201;-62
2021/06/24 15:08:59;;;;;;;4.38;2.97;;;33.50;99.90;;;;;;20736781;28;20318;-65
2021/06/24 15:19:04;;;;;;;3.50;1.83;;;33.50;99.90;;;;;;20736667;28;20277;-64
2021/06/24 15:29:10;;;;;;;2.35;2.15;;;33.60;99.90;;;;;;20800706;28;20368;-64
2021/06/24 15:39:15;;;;;;;2.47;2.08;;;33.20;99.90;;;;;;20818464;28;20205;-63
2021/06/24 15:49:19;;;;;;;2.80;2.30;;;33.10;99.90;;;;;;20799957;28;20278;-64
2021/06/24 15:59:24;;;;;;;5.45;1.88;;;32.80;99.90;;;;;;20816481;28;20228;-65
2021/06/24 16:09:27;;;;;;;4.68;1.95;;;32.80;99.90;;;;;;20815285;28;20257;-64
2021/06/24 16:19:32;;;;;;;4.10;1.75;;;32.70;99.90;;;;;;20813402;28;20613;-66
2021/06/24 16:29:37;;;;;;;5.50;2.40;;;31.90;99.90;;;;;;20732848;28;20273;-62
2021/06/24 16:39:42;;;;;;;3.05;1.73;;;31.00;99.90;;;;;;20734337;28;20265;-64
2021/06/24 16:49:46;;;;;;;2.92;1.88;;;31.30;99.90;;;;;;20776011;28;20316;-64
2021/06/24 16:59:51;;;;;;;4.00;2.00;;;31.80;99.90;;;;;;20828192;28;20234;-64
2021/06/24 17:09:55;;;;;;;1.60;1.38;;;31.60;99.90;;;;;;20829129;28;20325;-65
2021/06/24 17:20:00;;;;;;;3.45;1.85;;;31.10;99.90;;;;;;20828777;28;20628;-63
2021/06/24 17:30:07;;;;;;;2.20;1.80;;;29.40;99.90;;;;;;20808902;28;20240;-65
2021/06/24 17:40:13;;;;;;;2.97;1.83;;;28.50;99.90;;;;;;20827543;28;20194;-64
2021/06/24 17:50:17;;;;;;;2.97;1.33;;;27.50;99.90;;;;;;20825714;28;20586;-65
2021/06/24 18:00:24;;;;;;;1.58;0.73;;;25.80;99.90;;;;;;20824754;28;20626;-65
2021/06/24 18:10:29;;;;;;;1.08;0.40;;;25.20;99.90;;;;;;20823626;28;20633;-67
2021/06/24 18:20:35;;;;;;;6.35;1.40;;;24.60;99.90;;;;;;20791899;28;20692;-67
2021/06/24 18:30:39;;;;;;;0.50;0.40;;;24.20;99.90;;;;;;20739697;28;20230;-66
2021/06/24 18:40:44;;;;;;;0.40;0.40;;;24.00;99.90;;;;;;20737582;28;20205;-65
2021/06/24 18:50:48;;;;;;;0.20;0.13;;;23.90;99.90;;;;;;20772896;28;21020;-65
2021/06/24 19:00:53;;;;;;;0.83;0.83;;;24.40;99.90;;;;;;20752478;28;20261;-65
2021/06/24 19:10:57;;;;;;;0.73;0.40;;;23.60;99.90;;;;;;20736321;28;20675;-65
2021/06/24 19:21:02;;;;;;;1.70;0.57;;;23.60;99.90;;;;;;20719963;28;20241;-64
2021/06/24 19:31:06;;;;;;;0.80;0.30;;;23.50;99.90;;;;;;20719568;28;20222;-65
2021/06/24 19:41:12;;;;;;;0.73;0.40;;;23.20;99.90;;;;;;20782650;28;20205;-66
2021/06/24 19:51:15;;;;;;;0.30;0.30;;;23.30;99.90;;;;;;20817237;28;20222;-66
2021/06/24 20:01:20;;;;;;;0.50;0.50;;;22.90;99.90;;;;;;20817198;28;20232;-66
2021/06/24 20:11:24;;;;;;;0.50;0.50;;;22.90;99.90;;;;;;20816792;28;20226;-65
2021/06/24 20:21:29;;;;;;;4.07;1.67;;;22.80;99.90;;;;;;20813352;28;20190;-64
2021/06/24 20:31:33;;;;;;;5.27;0.87;;;22.80;99.90;;;;;;20823340;28;20590;-64
2021/06/24 20:41:38;;;;;;;0.97;0.57;;;23.00;99.90;;;;;;20812170;28;20224;-66
2021/06/24 20:51:43;;;;;;;4.63;1.13;;;22.80;99.90;;;;;;20828396;28;20242;-66
2021/06/24 21:01:48;;;;;;;1.00;0.63;;;23.00;99.90;;;;;;20827682;28;20249;-67
2021/06/24 21:11:51;;;;;;;1.43;0.90;;;22.90;99.90;;;;;;20826990;28;20578;-65
2021/06/24 21:21:56;;;;;;;1.57;1.43;;;22.70;99.90;;;;;;20802484;28;20199;-65
2021/06/24 21:32:00;;;;;;;4.73;2.00;;;22.70;99.90;;;;;;20744968;28;20297;-64
2021/06/24 21:42:06;;;;;;;2.60;1.70;;;22.50;99.90;;;;;;20743083;28;20203;-65
2021/06/24 21:52:10;;;;;;;0.90;0.40;;;22.20;99.90;;;;;;20743618;28;20645;-65
2021/06/24 22:02:15;;;;;;;0.50;0.30;;;22.30;99.90;;;;;;20744935;28;20230;-65
2021/06/24 22:12:19;;;;;;;0.50;0.40;;;22.20;99.90;;;;;;20743692;28;20226;-65
2021/06/24 22:22:24;;;;;;;0.77;0.60;;;22.00;99.90;;;;;;20769771;28;20198;-65
2021/06/24 22:32:27;;;;;;;0.50;0.30;;;21.50;99.90;;;;;;20825323;28;20254;-64
2021/06/24 22:42:32;;;;;;;0.47;0.13;;;21.30;99.90;;;;;;20806198;28;20194;-65
2021/06/24 22:52:36;;;;;;;0.37;0.37;;;21.00;99.90;;;;;;20821754;28;20232;-67
2021/06/24 23:02:41;;;;;;;0.40;0.20;;;21.00;99.90;;;;;;20822509;28;20222;-64
2021/06/24 23:12:45;;;;;;;0.20;0.10;;;20.90;99.90;;;;;;20821770;28;20313;-64
2021/06/24 23:22:50;;;;;;;0.23;0.20;;;20.80;99.90;;;;;;20789944;28;20198;-65
2021/06/24 23:32:53;;;;;;;1.70;0.87;;;20.70;99.90;;;;;;20739343;28;20321;-65
2021/06/24 23:42:58;;;;;;;1.30;0.57;;;20.60;99.90;;;;;;20750509;28;20190;-65
2021/06/24 23:53:02;;;;;;;0.23;0.23;;;20.50;99.90;;;;;;20800108;28;20643;-64
